createdAt,value
2017-02-12T00:00:05.781Z,30.7
2017-02-12T00:02:05.433Z,30.7
2017-02-12T00:04:05.179Z,30.7
2017-02-12T00:06:05.444Z,30.7
2017-02-12T00:08:05.325Z,30.7
2017-02-12T00:10:07.622Z,30.6
2017-02-12T00:12:05.741Z,30.6
2017-02-12T00:14:05.780Z,30.6
2017-02-12T00:16:05.616Z,31
2017-02-12T00:18:08.109Z,30.6
2017-02-12T00:20:05.909Z,30.7
2017-02-12T00:22:05.642Z,30.7
2017-02-12T00:24:07.855Z,30.7
2017-02-12T00:26:05.659Z,30.7
2017-02-12T00:28:06.169Z,30.6
2017-02-12T00:30:05.901Z,30.6
2017-02-12T00:32:08.305Z,30.6
2017-02-12T00:34:05.045Z,30.6
2017-02-12T00:36:08.311Z,30.7
2017-02-12T00:38:05.163Z,30.6
2017-02-12T00:40:10.923Z,30.6
2017-02-12T00:42:05.618Z,30.7
2017-02-12T00:44:11.075Z,30.6
2017-02-12T00:46:07.864Z,30.6
2017-02-12T00:48:05.263Z,30.7
2017-02-12T00:50:05.209Z,30.6
2017-02-12T00:52:05.937Z,30.6
2017-02-12T00:54:05.661Z,30.6
2017-02-12T00:56:05.768Z,30.6
2017-02-12T00:58:05.513Z,30.6
2017-02-12T01:00:05.531Z,30.6
2017-02-12T01:02:05.577Z,30.6
2017-02-12T01:04:07.877Z,30.6
2017-02-12T01:06:05.723Z,30.6
2017-02-12T01:08:08.832Z,30.6
2017-02-12T01:10:05.590Z,30.6
2017-02-12T01:12:05.291Z,30.6
2017-02-12T01:14:14.036Z,30.3
2017-02-12T01:16:06.236Z,30.6
2017-02-12T01:18:05.204Z,30.5
2017-02-12T01:20:05.824Z,30.5
2017-02-12T01:22:05.494Z,30.3
2017-02-12T01:24:05.698Z,30.4
2017-02-12T01:26:06.884Z,30.3
2017-02-12T01:28:13.499Z,30.5
2017-02-12T01:30:13.114Z,30.3
2017-02-12T01:32:06.401Z,30.5
2017-02-12T01:34:05.352Z,30.5
2017-02-12T01:36:05.040Z,30.5
2017-02-12T01:38:06.061Z,30.3
2017-02-12T01:40:05.866Z,30.3
2017-02-12T01:42:10.650Z,30.3
2017-02-12T01:44:08.135Z,30.5
2017-02-12T01:46:05.820Z,30.3
2017-02-12T01:48:05.937Z,30.3
2017-02-12T01:50:06.060Z,30.3
2017-02-12T01:52:05.814Z,30.3
2017-02-12T01:54:05.631Z,30.3
2017-02-12T01:56:05.762Z,30.3
2017-02-12T01:58:05.532Z,30.3
2017-02-12T02:00:05.313Z,30.3
2017-02-12T02:02:05.423Z,30.5
2017-02-12T02:04:07.956Z,30.3
2017-02-12T02:06:05.672Z,30.3
2017-02-12T02:08:05.537Z,30.3
2017-02-12T02:10:05.233Z,30.3
2017-02-12T02:12:05.455Z,30.3
2017-02-12T02:14:06.069Z,30.3
2017-02-12T02:16:08.329Z,30.3
2017-02-12T02:18:05.275Z,30.3
2017-02-12T02:20:05.382Z,30.3
2017-02-12T02:22:05.076Z,30.5
2017-02-12T02:24:05.811Z,30.3
2017-02-12T02:26:05.095Z,30.3
2017-02-12T02:28:05.812Z,30.3
2017-02-12T02:30:05.034Z,30.2
2017-02-12T02:32:05.837Z,30.3
2017-02-12T02:34:05.561Z,30.3
2017-02-12T02:36:10.741Z,30.3
2017-02-12T02:38:05.820Z,30.3
2017-02-12T02:40:05.546Z,30.5
2017-02-12T02:42:05.820Z,30.3
2017-02-12T02:44:05.807Z,30.5
2017-02-12T02:46:04.984Z,30.3
2017-02-12T02:48:05.680Z,30.3
2017-02-12T02:50:05.782Z,30.2
2017-02-12T02:52:05.606Z,30.2
2017-02-12T02:54:05.385Z,30.2
2017-02-12T02:56:08.040Z,30.4
2017-02-12T02:58:05.730Z,30.2
2017-02-12T03:00:06.030Z,30.2
2017-02-12T03:02:08.595Z,30.2
2017-02-12T03:04:05.334Z,30.2
2017-02-12T03:06:05.145Z,30.2
2017-02-12T03:08:06.121Z,30.2
2017-02-12T03:10:05.377Z,30.2
2017-02-12T03:12:08.198Z,30.2
2017-02-12T03:14:06.241Z,30.2
2017-02-12T03:16:05.956Z,30.2
2017-02-12T03:18:08.485Z,30.2
2017-02-12T03:20:06.041Z,30.2
2017-02-12T03:22:05.730Z,30.2
2017-02-12T03:24:05.732Z,30.2
2017-02-12T03:26:05.741Z,30.2
2017-02-12T03:28:07.950Z,30.1
2017-02-12T03:30:05.648Z,30.2
2017-02-12T03:32:06.226Z,30.2
2017-02-12T03:34:05.942Z,30.2
2017-02-12T03:36:05.687Z,30.1
2017-02-12T03:38:05.733Z,30.2
2017-02-12T03:40:05.577Z,30.2
2017-02-12T03:42:05.831Z,30.1
2017-02-12T03:44:05.911Z,30.1
2017-02-12T03:46:05.152Z,30.2
2017-02-12T03:48:10.931Z,30.2
2017-02-12T03:50:05.814Z,30.2
2017-02-12T03:52:12.669Z,30.2
2017-02-12T03:54:13.541Z,30.1
2017-02-12T03:56:05.484Z,30.2
2017-02-12T03:58:05.172Z,30.2
2017-02-12T04:00:05.885Z,30.1
2017-02-12T04:02:05.872Z,30.1
2017-02-12T04:04:05.641Z,30.1
2017-02-12T04:06:05.441Z,30.2
2017-02-12T04:08:06.099Z,30.1
2017-02-12T04:10:05.815Z,30.1
2017-02-12T04:12:05.850Z,30.2
2017-02-12T04:14:05.409Z,30.1
2017-02-12T04:16:07.661Z,30.1
2017-02-12T04:18:05.584Z,30.2
2017-02-12T04:20:05.637Z,30.1
2017-02-12T04:22:07.963Z,30.1
2017-02-12T04:24:05.678Z,30.1
2017-02-12T04:26:05.737Z,30.1
2017-02-12T04:28:10.647Z,30.1
2017-02-12T04:30:05.337Z,30.1
2017-02-12T04:32:05.923Z,30.1
2017-02-12T04:34:05.604Z,30.1
2017-02-12T04:36:05.865Z,30.1
2017-02-12T04:38:05.685Z,30.1
2017-02-12T04:40:05.399Z,30.1
2017-02-12T04:42:05.674Z,30.1
2017-02-12T04:44:10.733Z,30.1
2017-02-12T04:46:05.105Z,30.1
2017-02-12T04:48:05.839Z,30.1
2017-02-12T04:50:06.129Z,30.1
2017-02-12T04:52:05.343Z,30.1
2017-02-12T04:54:07.561Z,30.1
2017-02-12T04:56:05.554Z,30.1
2017-02-12T04:58:05.287Z,30.1
2017-02-12T05:00:05.873Z,30.1
2017-02-12T05:02:05.708Z,30.1
2017-02-12T05:04:05.440Z,30
2017-02-12T05:06:05.236Z,30.1
2017-02-12T05:08:06.054Z,30.1
2017-02-12T05:10:05.267Z,30.1
2017-02-12T05:12:05.504Z,30
2017-02-12T05:14:05.500Z,30
2017-02-12T05:16:05.296Z,30
2017-02-12T05:18:05.743Z,30
2017-02-12T05:20:05.839Z,30
2017-02-12T05:22:05.480Z,30
2017-02-12T05:24:05.166Z,30
2017-02-12T05:26:05.382Z,30
2017-02-12T05:28:05.079Z,30
2017-02-12T05:30:08.353Z,30
2017-02-12T05:32:07.927Z,30
2017-02-12T05:34:05.226Z,30
2017-02-12T05:36:05.907Z,30
2017-02-12T05:38:05.749Z,30
2017-02-12T05:40:05.965Z,30.1
2017-02-12T05:42:08.186Z,30
2017-02-12T05:44:06.189Z,30
2017-02-12T05:46:05.957Z,30
2017-02-12T05:48:05.685Z,30
2017-02-12T05:50:05.507Z,30
2017-02-12T05:52:08.307Z,30.1
2017-02-12T05:54:10.087Z,30
2017-02-12T05:56:08.633Z,30
2017-02-12T05:58:05.825Z,30.3
2017-02-12T06:00:05.569Z,30
2017-02-12T06:02:05.620Z,30
2017-02-12T06:04:10.765Z,30
2017-02-12T06:06:05.704Z,30
2017-02-12T06:08:05.636Z,30
2017-02-12T06:10:05.883Z,30
2017-02-12T06:12:05.636Z,30
2017-02-12T06:14:06.263Z,30
2017-02-12T06:16:06.013Z,30
2017-02-12T06:18:08.556Z,30
2017-02-12T06:20:05.637Z,30
2017-02-12T06:22:05.896Z,30
2017-02-12T06:24:05.204Z,30
2017-02-12T06:26:08.748Z,30
2017-02-12T06:28:07.994Z,30
2017-02-12T06:30:05.684Z,30
2017-02-12T06:32:08.189Z,30
2017-02-12T06:34:05.922Z,30
2017-02-12T06:36:05.747Z,29.9
2017-02-12T06:38:06.291Z,30
2017-02-12T06:40:11.058Z,29.9
2017-02-12T06:42:05.743Z,29.9
2017-02-12T06:44:05.782Z,30
2017-02-12T06:46:10.157Z,29.9
2017-02-12T06:48:05.389Z,29.9
2017-02-12T06:50:05.422Z,29.9
2017-02-12T06:52:05.263Z,29.9
2017-02-12T06:54:06.010Z,29.9
2017-02-12T06:56:06.078Z,29.9
2017-02-12T06:58:05.850Z,29.9
2017-02-12T07:00:05.568Z,29.9
2017-02-12T07:02:07.901Z,29.9
2017-02-12T07:04:05.703Z,29.9
2017-02-12T07:06:06.017Z,29.9
2017-02-12T07:08:06.070Z,29.9
2017-02-12T07:10:05.793Z,29.9
2017-02-12T07:12:05.115Z,29.9
2017-02-12T07:14:06.116Z,29.9
2017-02-12T07:16:05.822Z,29.9
2017-02-12T07:18:05.740Z,29.9
2017-02-12T07:20:08.089Z,29.9
2017-02-12T07:22:05.783Z,29.9
2017-02-12T07:24:05.647Z,29.9
2017-02-12T07:26:05.753Z,29.9
2017-02-12T07:28:05.468Z,29.9
2017-02-12T07:30:05.375Z,29.9
2017-02-12T07:32:05.393Z,29.9
2017-02-12T07:34:05.108Z,29.8
2017-02-12T07:36:10.428Z,29.9
2017-02-12T07:38:07.963Z,29.9
2017-02-12T07:40:05.874Z,29.8
2017-02-12T07:42:05.142Z,29.8
2017-02-12T07:44:05.733Z,29.9
2017-02-12T07:46:05.469Z,29.8
2017-02-12T07:48:05.265Z,29.8
2017-02-12T07:50:06.407Z,29.8
2017-02-12T07:52:05.266Z,29.8
2017-02-12T07:54:05.980Z,29.8
2017-02-12T07:56:08.639Z,29.8
2017-02-12T07:58:05.401Z,29.8
2017-02-12T08:00:05.400Z,29.8
2017-02-12T08:02:05.416Z,29.8
2017-02-12T08:04:07.709Z,29.9
2017-02-12T08:06:07.980Z,29.8
2017-02-12T08:08:05.826Z,29.8
2017-02-12T08:10:05.520Z,29.8
2017-02-12T08:12:05.376Z,29.8
2017-02-12T08:14:05.394Z,29.8
2017-02-12T08:16:05.189Z,29.8
2017-02-12T08:18:05.082Z,29.8
2017-02-12T08:20:06.061Z,29.8
2017-02-12T08:22:05.761Z,29.8
2017-02-12T08:24:05.539Z,29.8
2017-02-12T08:26:05.598Z,29.8
2017-02-12T08:28:05.448Z,29.8
2017-02-12T08:30:07.726Z,29.8
2017-02-12T08:32:05.561Z,29.8
2017-02-12T08:34:05.218Z,29.8
2017-02-12T08:36:05.879Z,29.8
2017-02-12T08:38:05.875Z,29.8
2017-02-12T08:40:10.665Z,29.8
2017-02-12T08:42:07.897Z,29.8
2017-02-12T08:44:05.313Z,29.8
2017-02-12T08:46:13.159Z,29.8
2017-02-12T08:48:05.403Z,29.8
2017-02-12T08:50:08.561Z,29.8
2017-02-12T08:52:07.824Z,29.8
2017-02-12T08:54:05.537Z,29.8
2017-02-12T08:56:05.933Z,29.8
2017-02-12T08:58:05.709Z,29.8
2017-02-12T09:00:06.214Z,29.8
2017-02-12T09:02:08.375Z,29.8
2017-02-12T09:04:05.184Z,29.8
2017-02-12T09:06:08.404Z,29.8
2017-02-12T09:08:05.454Z,29.8
2017-02-12T09:10:05.894Z,29.8
2017-02-12T09:12:05.812Z,29.7
2017-02-12T09:14:05.782Z,29.8
2017-02-12T09:16:05.904Z,29.7
2017-02-12T09:18:05.000Z,29.8
2017-02-12T09:20:05.949Z,29.8
2017-02-12T09:22:05.645Z,29.8
2017-02-12T09:24:05.360Z,29.7
2017-02-12T09:26:05.190Z,29.7
2017-02-12T09:28:05.477Z,29.7
2017-02-12T09:30:05.680Z,29.7
2017-02-12T09:32:10.851Z,29.7
2017-02-12T09:34:05.566Z,29.7
2017-02-12T09:36:07.890Z,29.7
2017-02-12T09:38:10.838Z,29.7
2017-02-12T09:40:05.614Z,29.7
2017-02-12T09:42:07.922Z,29.9
2017-02-12T09:44:05.809Z,29.7
2017-02-12T09:46:05.821Z,29.7
2017-02-12T09:48:05.969Z,29.7
2017-02-12T09:50:06.043Z,29.7
2017-02-12T09:52:05.332Z,29.7
2017-02-12T09:54:08.126Z,29.7
2017-02-12T09:56:06.098Z,29.7
2017-02-12T09:58:08.333Z,29.7
2017-02-12T10:00:05.169Z,29.7
2017-02-12T10:02:06.067Z,29.7
2017-02-12T10:04:06.177Z,29.7
2017-02-12T10:06:13.523Z,29.7
2017-02-12T10:08:05.649Z,29.7
2017-02-12T10:10:07.905Z,29.6
2017-02-12T10:12:08.245Z,29.6
2017-02-12T10:14:06.030Z,29.6
2017-02-12T10:16:05.311Z,29.6
2017-02-12T10:18:05.247Z,29.6
2017-02-12T10:20:07.565Z,29.6
2017-02-12T10:22:05.418Z,29.6
2017-02-12T10:24:05.328Z,29.8
2017-02-12T10:26:10.560Z,29.6
2017-02-12T10:28:05.815Z,29.8
2017-02-12T10:30:05.608Z,29.8
2017-02-12T10:32:05.649Z,29.8
2017-02-12T10:34:05.493Z,29.7
2017-02-12T10:36:10.589Z,29.7
2017-02-12T10:38:05.657Z,29.7
2017-02-12T10:40:13.029Z,29.7
2017-02-12T10:42:05.919Z,29.7
2017-02-12T10:44:06.087Z,29.8
2017-02-12T10:46:05.801Z,29.6
2017-02-12T10:48:07.551Z,29.6
2017-02-12T10:50:05.402Z,29.6
2017-02-12T10:52:06.918Z,29.8
2017-02-12T10:54:08.148Z,29.6
2017-02-12T10:56:05.509Z,29.8
2017-02-12T10:58:06.856Z,29.6
2017-02-12T11:00:07.764Z,29.6
2017-02-12T11:02:10.802Z,29.6
2017-02-12T11:04:05.507Z,29.6
2017-02-12T11:06:05.207Z,29.6
2017-02-12T11:08:06.317Z,29.6
2017-02-12T11:10:05.081Z,29.6
2017-02-12T11:12:08.306Z,29.6
2017-02-12T11:14:05.340Z,29.6
2017-02-12T11:16:07.583Z,29.6
2017-02-12T11:18:08.065Z,29.6
2017-02-12T11:20:06.131Z,29.6
2017-02-12T11:22:05.931Z,29.6
2017-02-12T11:24:11.089Z,29.6
2017-02-12T11:26:06.252Z,29.6
2017-02-12T11:28:05.029Z,29.6
2017-02-12T11:30:05.707Z,29.6
2017-02-12T11:32:05.931Z,29.6
2017-02-12T11:34:05.734Z,29.6
2017-02-12T11:36:05.476Z,29.8
2017-02-12T11:38:05.610Z,29.6
2017-02-12T11:40:07.994Z,29.6
2017-02-12T11:42:08.372Z,29.6
2017-02-12T11:44:05.424Z,29.6
2017-02-12T11:46:05.110Z,29.6
2017-02-12T11:48:05.816Z,29.8
2017-02-12T11:50:08.414Z,29.8
2017-02-12T11:52:07.675Z,29.8
2017-02-12T11:54:05.446Z,29.8
2017-02-12T11:56:05.604Z,29.8
2017-02-12T11:58:05.320Z,29.8
2017-02-12T12:00:05.215Z,29.8
2017-02-12T12:02:11.309Z,29.8
2017-02-12T12:04:08.539Z,29.8
2017-02-12T12:06:05.274Z,29.8
2017-02-12T12:08:06.254Z,29.7
2017-02-12T12:10:06.001Z,29.7
2017-02-12T12:12:05.798Z,29.7
2017-02-12T12:14:05.210Z,29.7
2017-02-12T12:16:10.996Z,29.7
2017-02-12T12:18:05.988Z,29.7
2017-02-12T12:20:05.357Z,29.7
2017-02-12T12:22:05.097Z,29.7
2017-02-12T12:24:07.905Z,29.7
2017-02-12T12:26:08.464Z,29.7
2017-02-12T12:28:05.969Z,29.7
2017-02-12T12:30:05.720Z,29.7
2017-02-12T12:32:05.693Z,29.7
2017-02-12T12:34:07.934Z,29.7
2017-02-12T12:36:11.389Z,29.7
2017-02-12T12:38:12.294Z,29.7
2017-02-12T12:40:08.622Z,29.7
2017-02-12T12:42:05.862Z,29.7
2017-02-12T12:44:08.516Z,29.6
2017-02-12T12:46:05.211Z,29.6
2017-02-12T12:48:05.525Z,29.6
2017-02-12T12:50:05.585Z,29.6
2017-02-12T12:52:05.359Z,29.7
2017-02-12T12:54:05.117Z,29.6
2017-02-12T12:56:06.103Z,29.6
2017-02-12T12:58:08.381Z,29.6
2017-02-12T13:00:10.658Z,29.7
2017-02-12T13:02:05.521Z,29.7
2017-02-12T13:04:05.226Z,29.6
2017-02-12T13:06:05.982Z,29.6
2017-02-12T13:08:05.879Z,29.6
2017-02-12T13:10:05.686Z,29.6
2017-02-12T13:12:07.971Z,29.7
2017-02-12T13:14:05.799Z,29.7
2017-02-12T13:16:05.415Z,29.6
2017-02-12T13:18:05.395Z,29.6
2017-02-12T13:20:05.295Z,29.6
2017-02-12T13:22:05.569Z,29.7
2017-02-12T13:24:10.425Z,29.6
2017-02-12T13:26:08.061Z,29.7
2017-02-12T13:28:05.801Z,29.6
2017-02-12T13:30:05.481Z,29.7
2017-02-12T13:32:08.067Z,29.7
2017-02-12T13:34:05.793Z,29.7
2017-02-12T13:36:05.017Z,29.6
2017-02-12T13:38:08.573Z,29.7
2017-02-12T13:40:05.808Z,29.7
2017-02-12T13:42:05.592Z,29.7
2017-02-12T13:44:05.841Z,29.7
2017-02-12T13:46:05.597Z,29.9
2017-02-12T13:48:08.080Z,29.7
2017-02-12T13:50:06.073Z,29.7
2017-02-12T13:52:08.353Z,29.7
2017-02-12T13:54:05.268Z,29.7
2017-02-12T13:56:08.033Z,29.6
2017-02-12T13:58:11.057Z,29.7
2017-02-12T14:00:05.959Z,29.7
2017-02-12T14:02:05.957Z,29.8
2017-02-12T14:04:05.983Z,29.7
2017-02-12T14:06:07.832Z,29.7
2017-02-12T14:08:05.865Z,29.7
2017-02-12T14:10:05.513Z,29.6
2017-02-12T14:12:05.223Z,29.7
2017-02-12T14:14:05.867Z,29.7
2017-02-12T14:16:05.585Z,29.7
2017-02-12T14:18:08.090Z,29.7
2017-02-12T14:20:06.128Z,29.7
2017-02-12T14:22:05.959Z,29.7
2017-02-12T14:24:05.719Z,29.7
2017-02-12T14:26:05.683Z,29.7
2017-02-12T14:28:05.653Z,29.9
2017-02-12T14:30:08.068Z,29.6
2017-02-12T14:32:06.124Z,29.7
2017-02-12T14:34:05.843Z,29.7
2017-02-12T14:36:05.912Z,29.7
2017-02-12T14:38:05.918Z,29.7
2017-02-12T14:40:05.720Z,29.7
2017-02-12T14:42:07.934Z,29.9
2017-02-12T14:44:06.021Z,29.7
2017-02-12T14:46:05.731Z,29.7
2017-02-12T14:48:05.447Z,29.7
2017-02-12T14:50:07.958Z,29.7
2017-02-12T14:52:05.414Z,29.7
2017-02-12T14:54:05.743Z,29.7
2017-02-12T14:56:10.891Z,29.7
2017-02-12T14:58:05.630Z,29.7
2017-02-12T15:00:05.633Z,29.7
2017-02-12T15:02:05.604Z,29.7
2017-02-12T15:04:05.814Z,29.7
2017-02-12T15:06:05.045Z,29.8
2017-02-12T15:08:05.930Z,29.8
2017-02-12T15:10:05.797Z,29.8
2017-02-12T15:12:06.118Z,29.7
2017-02-12T15:14:08.671Z,29.7
2017-02-12T15:16:05.942Z,29.7
2017-02-12T15:18:05.941Z,29.7
2017-02-12T15:20:05.883Z,29.7
2017-02-12T15:22:08.325Z,29.7
2017-02-12T15:24:05.469Z,29.7
2017-02-12T15:26:08.076Z,29.7
2017-02-12T15:28:05.318Z,29.8
2017-02-12T15:30:05.031Z,29.7
2017-02-12T15:32:06.118Z,29.7
2017-02-12T15:34:05.901Z,29.7
2017-02-12T15:36:05.600Z,29.7
2017-02-12T15:38:08.067Z,29.7
2017-02-12T15:40:06.124Z,29.7
2017-02-12T15:42:05.807Z,29.8
2017-02-12T15:44:08.316Z,29.7
2017-02-12T15:46:05.570Z,29.7
2017-02-12T15:48:05.364Z,29.7
2017-02-12T15:50:05.341Z,29.7
2017-02-12T15:52:05.253Z,29.7
2017-02-12T15:54:06.016Z,29.7
2017-02-12T15:56:06.054Z,29.7
2017-02-12T15:58:05.740Z,29.7
2017-02-12T16:00:11.719Z,29.7
2017-02-12T16:02:13.100Z,29.7
2017-02-12T16:04:05.795Z,29.7
2017-02-12T16:06:05.644Z,29.7
2017-02-12T16:08:05.436Z,29.7
2017-02-12T16:10:05.097Z,29.7
2017-02-12T16:12:06.109Z,29.7
2017-02-12T16:14:06.050Z,29.7
2017-02-12T16:16:08.289Z,29.7
2017-02-12T16:18:07.310Z,29.7
2017-02-12T16:20:05.863Z,29.7
2017-02-12T16:22:05.581Z,29.7
2017-02-12T16:24:06.363Z,29.8
2017-02-12T16:26:09.631Z,29.8
2017-02-12T16:28:05.851Z,29.7
2017-02-12T16:30:05.534Z,29.7
2017-02-12T16:32:05.855Z,29.8
2017-02-12T16:34:05.618Z,29.7
2017-02-12T16:36:07.922Z,29.6
2017-02-12T16:38:05.731Z,29.7
2017-02-12T16:40:05.521Z,29.6
2017-02-12T16:42:07.769Z,29.8
2017-02-12T16:44:05.782Z,29.8
2017-02-12T16:46:05.520Z,29.6
2017-02-12T16:48:05.243Z,29.8
2017-02-12T16:50:06.084Z,29.6
2017-02-12T16:52:05.804Z,29.6
2017-02-12T16:54:10.109Z,29.6
2017-02-12T16:56:06.397Z,29.6
2017-02-12T16:58:07.710Z,29.6
2017-02-12T17:00:08.102Z,29.6
2017-02-12T17:02:06.018Z,29.6
2017-02-12T17:04:10.909Z,29.6
2017-02-12T17:06:05.164Z,29.6
2017-02-12T17:08:08.914Z,29.6
2017-02-12T17:10:05.641Z,29.6
2017-02-12T17:12:05.388Z,29.6
2017-02-12T17:14:05.443Z,29.6
2017-02-12T17:16:05.654Z,29.6
2017-02-12T17:18:08.160Z,29.6
2017-02-12T17:20:06.224Z,29.6
2017-02-12T17:22:05.937Z,29.6
2017-02-12T17:24:05.602Z,29.6
2017-02-12T17:26:05.610Z,29.6
2017-02-12T17:28:05.825Z,29.6
2017-02-12T17:30:05.603Z,29.6
2017-02-12T17:32:05.738Z,29.6
2017-02-12T17:34:08.536Z,29.6
2017-02-12T17:36:05.808Z,29.6
2017-02-12T17:38:05.740Z,29.6
2017-02-12T17:40:05.510Z,29.6
2017-02-12T17:42:07.985Z,29.6
2017-02-12T17:44:06.127Z,29.6
2017-02-12T17:46:05.839Z,29.6
2017-02-12T17:48:05.975Z,29.6
2017-02-12T17:50:10.781Z,29.6
2017-02-12T17:52:05.481Z,29.6
2017-02-12T17:54:05.181Z,29.6
2017-02-12T17:56:10.883Z,29.6
2017-02-12T17:58:05.663Z,29.6
2017-02-12T18:00:05.402Z,29.6
2017-02-12T18:02:07.947Z,29.6
2017-02-12T18:04:05.929Z,29.6
2017-02-12T18:06:08.202Z,29.6
2017-02-12T18:08:11.207Z,29.6
2017-02-12T18:10:05.940Z,29.6
2017-02-12T18:12:05.672Z,29.6
2017-02-12T18:14:06.205Z,29.6
2017-02-12T18:16:05.965Z,29.6
2017-02-12T18:18:05.884Z,29.6
2017-02-12T18:20:05.797Z,29.6
2017-02-12T18:22:05.051Z,29.6
2017-02-12T18:24:05.894Z,29.6
2017-02-12T18:26:05.589Z,29.6
2017-02-12T18:28:05.326Z,29.7
2017-02-12T18:30:07.619Z,29.6
2017-02-12T18:32:05.703Z,29.4
2017-02-12T18:34:05.510Z,29.6
2017-02-12T18:36:08.020Z,29.6
2017-02-12T18:38:05.464Z,29.6
2017-02-12T18:40:12.827Z,29.6
2017-02-12T18:42:05.668Z,29.6
2017-02-12T18:44:05.633Z,29.6
2017-02-12T18:46:08.145Z,29.6
2017-02-12T18:48:05.948Z,29.6
2017-02-12T18:50:06.024Z,29.6
2017-02-12T18:52:07.185Z,29.7
2017-02-12T18:54:05.536Z,29.6
2017-02-12T18:56:05.740Z,29.5
2017-02-12T18:58:08.079Z,29.7
2017-02-12T19:00:05.814Z,29.6
2017-02-12T19:02:07.787Z,29.7
2017-02-12T19:04:05.566Z,29.7
2017-02-12T19:06:05.329Z,29.7
2017-02-12T19:08:08.235Z,29.7
2017-02-12T19:10:08.529Z,29.7
2017-02-12T19:12:07.871Z,29.5
2017-02-12T19:14:05.576Z,29.7
2017-02-12T19:16:05.629Z,29.7
2017-02-12T19:18:05.667Z,29.5
2017-02-12T19:20:05.807Z,29.5
2017-02-12T19:22:05.529Z,29.7
2017-02-12T19:24:14.014Z,29.5
2017-02-12T19:26:06.182Z,29.5
2017-02-12T19:28:05.230Z,29.5
2017-02-12T19:30:07.825Z,29.7
2017-02-12T19:32:05.434Z,29.7
2017-02-12T19:34:05.781Z,29.8
2017-02-12T19:36:05.062Z,29.8
2017-02-12T19:38:06.157Z,29.8
2017-02-12T19:40:11.220Z,29.9
2017-02-12T19:42:05.520Z,29.8
2017-02-12T19:44:05.568Z,29.9
2017-02-12T19:46:07.896Z,30
2017-02-12T19:48:05.633Z,29.8
2017-02-12T19:50:05.761Z,30
2017-02-12T19:52:08.193Z,30
2017-02-12T19:54:05.496Z,30
2017-02-12T19:56:05.681Z,30
2017-02-12T19:58:08.973Z,30
2017-02-12T20:00:05.753Z,30
2017-02-12T20:02:05.669Z,30
2017-02-12T20:04:05.447Z,30
2017-02-12T20:06:05.237Z,30
2017-02-12T20:08:08.914Z,30
2017-02-12T20:10:05.915Z,30
2017-02-12T20:12:05.819Z,30
2017-02-12T20:14:05.848Z,30.1
2017-02-12T20:16:08.125Z,30.5
2017-02-12T20:18:07.597Z,30.5
2017-02-12T20:20:05.728Z,30.5
2017-02-12T20:22:05.446Z,30.6
2017-02-12T20:24:07.699Z,30.6
2017-02-12T20:26:05.569Z,30.6
2017-02-12T20:28:05.715Z,30.7
2017-02-12T20:30:07.990Z,30.7
2017-02-12T20:32:05.837Z,30.7
2017-02-12T20:34:05.662Z,30.7
2017-02-12T20:36:05.710Z,30.7
2017-02-12T20:38:08.324Z,30.7
2017-02-12T20:40:05.087Z,30.7
2017-02-12T20:42:05.795Z,30.7
2017-02-12T20:44:05.223Z,30.7
2017-02-12T20:46:13.553Z,30.8
2017-02-12T20:48:07.818Z,30.7
2017-02-12T20:50:05.939Z,30.7
2017-02-12T20:52:05.205Z,30.5
2017-02-12T20:54:05.977Z,30.7
2017-02-12T20:56:05.964Z,30.7
2017-02-12T20:58:05.882Z,30.5
2017-02-12T21:00:08.383Z,30.7
2017-02-12T21:02:05.538Z,30.7
2017-02-12T21:04:05.705Z,30.5
2017-02-12T21:06:05.440Z,30.5
2017-02-12T21:08:05.516Z,30.5
2017-02-12T21:10:07.819Z,30.5
2017-02-12T21:12:06.579Z,30.5
2017-02-12T21:14:05.721Z,30.4
2017-02-12T21:16:08.504Z,30.5
2017-02-12T21:18:05.557Z,30.5
2017-02-12T21:20:06.042Z,30.5
2017-02-12T21:22:05.876Z,30.4
2017-02-12T21:24:05.700Z,30.4
2017-02-12T21:26:05.597Z,30.4
2017-02-12T21:28:05.414Z,30.4
2017-02-12T21:30:05.156Z,30.4
2017-02-12T21:32:05.512Z,30.4
2017-02-12T21:34:05.234Z,30.5
2017-02-12T21:36:11.038Z,30.4
2017-02-12T21:38:06.063Z,30.4
2017-02-12T21:40:05.069Z,30.5
2017-02-12T21:42:08.486Z,30.5
2017-02-12T21:44:05.577Z,30.5
2017-02-12T21:46:05.882Z,30.4
2017-02-12T21:48:06.011Z,30.4
2017-02-12T21:50:08.624Z,30.5
2017-02-12T21:52:05.490Z,30.4
2017-02-12T21:54:05.225Z,30.4
2017-02-12T21:56:05.747Z,30.4
2017-02-12T21:58:05.487Z,30.4
2017-02-12T22:00:07.708Z,30.4
2017-02-12T22:02:05.783Z,30.4
2017-02-12T22:04:08.394Z,30.4
2017-02-12T22:06:05.139Z,30.4
2017-02-12T22:08:05.960Z,30.4
2017-02-12T22:10:05.713Z,30.4
2017-02-12T22:12:06.230Z,30.4
2017-02-12T22:14:05.365Z,30.4
2017-02-12T22:16:05.928Z,30.4
2017-02-12T22:18:05.867Z,30.4
2017-02-12T22:20:05.312Z,30.4
2017-02-12T22:22:05.090Z,30.4
2017-02-12T22:24:05.088Z,30.4
2017-02-12T22:26:06.120Z,30.4
2017-02-12T22:28:05.381Z,30.5
2017-02-12T22:30:05.157Z,30.4
2017-02-12T22:32:08.248Z,30.4
2017-02-12T22:34:08.528Z,30.1
2017-02-12T22:36:10.932Z,30.4
2017-02-12T22:38:08.057Z,30.4
2017-02-12T22:40:05.845Z,30.4
2017-02-12T22:42:08.339Z,30.4
2017-02-12T22:44:05.635Z,30.2
2017-02-12T22:46:05.343Z,30.7
2017-02-12T22:48:06.047Z,30.2
2017-02-12T22:50:08.552Z,30.4
2017-02-12T22:52:05.691Z,30.1
2017-02-12T22:54:05.425Z,30.1
2017-02-12T22:56:06.059Z,30.1
2017-02-12T22:58:08.452Z,30.2
2017-02-12T23:00:05.190Z,30.2
2017-02-12T23:02:06.050Z,30.1
2017-02-12T23:04:05.889Z,30.2
2017-02-12T23:06:05.697Z,30.1
2017-02-12T23:08:05.705Z,30.4
2017-02-12T23:10:08.521Z,30.1
2017-02-12T23:12:05.233Z,30.1
2017-02-12T23:14:06.395Z,30.1
2017-02-12T23:16:05.132Z,30.1
2017-02-12T23:18:05.072Z,30.1
2017-02-12T23:20:08.274Z,30.1
2017-02-12T23:22:05.534Z,30.1
2017-02-12T23:24:05.603Z,30.1
2017-02-12T23:26:05.462Z,30.1
2017-02-12T23:28:05.246Z,30.1
2017-02-12T23:30:06.015Z,30.1
2017-02-12T23:32:06.422Z,30.1
2017-02-12T23:34:07.725Z,30.1
2017-02-12T23:36:09.204Z,30.1
2017-02-12T23:38:05.378Z,30.1
2017-02-12T23:40:08.292Z,30.1
2017-02-12T23:42:05.296Z,30.1
2017-02-12T23:44:05.542Z,30.1
2017-02-12T23:46:05.359Z,30.1
2017-02-12T23:48:05.113Z,30.1
2017-02-12T23:50:08.766Z,30.1
2017-02-12T23:52:05.667Z,30.1
2017-02-12T23:54:08.002Z,30.1
2017-02-12T23:56:06.167Z,30
2017-02-12T23:58:05.884Z,30.1
